Time;durP1;ratioP1;P1;durP2;ratioP2;P2;SDS_P1;SDS_P2;PMS_P1;PMS_P2;Temp;Humidity;BMP_temperature;BMP_pressure;BME280_temperature;BME280_humidity;BME280_pressure;Samples;Min_cycle;Max_cycle;Signal;HPM_P1;HPM_P2
2021/03/16 00:01:27;;;;;;;30.08;4.18;;;;;;;;;;4985698;28;20048;-70
2021/03/16 00:03:53;;;;;;;29.85;4.57;;;;;;;;;;4980153;28;20484;-70
2021/03/16 00:06:19;;;;;;;25.98;3.88;;;;;;;;;;4982005;28;20038;-71
2021/03/16 00:08:45;;;;;;;32.45;4.13;;;;;;;;;;4980651;28;20057;-72
2021/03/16 00:11:11;;;;;;;35.78;4.78;;;;;;;;;;4988268;28;20038;-71
2021/03/16 00:13:38;;;;;;;34.05;6.97;;;;;;;;;;4985049;28;20081;-70
2021/03/16 00:16:04;;;;;;;34.15;4.22;;;;;;;;;;4986396;28;20062;-71
2021/03/16 00:18:30;;;;;;;35.05;3.63;;;;;;;;;;4983239;28;20045;-70
2021/03/16 00:20:56;;;;;;;21.20;3.65;;;;;;;;;;4983043;28;20597;-71
2021/03/16 00:23:22;;;;;;;23.95;3.35;;;;;;;;;;4988779;28;20587;-70
2021/03/16 00:25:48;;;;;;;25.58;4.50;;;;;;;;;;4987398;28;20097;-70
2021/03/16 00:28:14;;;;;;;28.52;3.50;;;;;;;;;;4972961;28;20489;-70
2021/03/16 00:30:40;;;;;;;23.73;5.43;;;;;;;;;;4988928;28;20492;-70
2021/03/16 00:33:06;;;;;;;26.52;3.25;;;;;;;;;;4981041;28;20038;-70
2021/03/16 00:35:32;;;;;;;25.30;4.45;;;;;;;;;;4978969;28;20034;-70
2021/03/16 00:37:58;;;;;;;33.15;3.85;;;;;;;;;;4987010;28;20029;-70
2021/03/16 00:40:24;;;;;;;27.27;3.75;;;;;;;;;;4986779;28;20026;-70
2021/03/16 00:42:51;;;;;;;34.85;5.78;;;;;;;;;;4983194;28;20045;-71
2021/03/16 00:45:17;;;;;;;34.40;4.22;;;;;;;;;;4977345;28;20030;-70
2021/03/16 00:47:43;;;;;;;33.10;4.28;;;;;;;;;;4990895;28;20023;-70
2021/03/16 00:50:13;;;;;;;25.73;3.50;;;;;;;;;;4978066;28;20550;-69
2021/03/16 00:52:39;;;;;;;25.42;3.15;;;;;;;;;;4982200;28;20089;-71
2021/03/16 00:55:05;;;;;;;30.17;3.97;;;;;;;;;;4985612;28;20042;-70
2021/03/16 00:57:32;;;;;;;21.77;3.22;;;;;;;;;;4984019;28;20030;-69
2021/03/16 00:59:58;;;;;;;18.05;3.05;;;;;;;;;;4988609;28;20488;-71
2021/03/16 01:02:24;;;;;;;21.27;3.33;;;;;;;;;;4979420;28;20022;-72
2021/03/16 01:04:50;;;;;;;23.58;4.03;;;;;;;;;;4984744;28;20056;-70
2021/03/16 01:07:16;;;;;;;30.55;4.15;;;;;;;;;;4978048;28;20081;-70
2021/03/16 01:09:42;;;;;;;28.10;4.93;;;;;;;;;;4976230;28;20035;-70
2021/03/16 01:12:08;;;;;;;31.38;4.60;;;;;;;;;;4988253;28;20031;-71
2021/03/16 01:14:34;;;;;;;36.60;4.53;;;;;;;;;;4988247;28;20085;-70
2021/03/16 01:17:00;;;;;;;23.08;3.63;;;;;;;;;;4981030;28;20111;-70
2021/03/16 01:19:26;;;;;;;35.92;4.72;;;;;;;;;;4985581;28;20096;-70
2021/03/16 01:21:53;;;;;;;30.77;5.82;;;;;;;;;;4988666;28;20038;-71
2021/03/16 01:24:19;;;;;;;27.83;4.00;;;;;;;;;;4989314;28;20034;-70
2021/03/16 01:26:45;;;;;;;33.50;4.85;;;;;;;;;;4993339;28;20014;-70
2021/03/16 01:29:11;;;;;;;19.67;4.63;;;;;;;;;;4988406;28;20027;-71
2021/03/16 01:31:37;;;;;;;30.73;4.22;;;;;;;;;;4990358;28;20049;-70
2021/03/16 01:34:03;;;;;;;17.55;3.78;;;;;;;;;;4983272;28;20524;-71
2021/03/16 01:36:29;;;;;;;23.50;4.07;;;;;;;;;;4983981;28;20428;-71
2021/03/16 01:38:55;;;;;;;40.05;4.38;;;;;;;;;;4983155;28;20030;-70
2021/03/16 01:41:22;;;;;;;21.10;3.15;;;;;;;;;;4987303;28;20039;-70
2021/03/16 01:43:48;;;;;;;32.45;4.57;;;;;;;;;;4992916;28;20022;-71
2021/03/16 01:46:14;;;;;;;26.58;5.03;;;;;;;;;;4990291;28;20026;-71
2021/03/16 01:48:40;;;;;;;23.00;4.68;;;;;;;;;;4990367;28;20094;-71
2021/03/16 01:51:09;;;;;;;35.38;4.50;;;;;;;;;;4989048;28;20059;-70
2021/03/16 01:53:35;;;;;;;30.50;4.60;;;;;;;;;;4987244;28;20023;-70
2021/03/16 01:56:03;;;;;;;34.67;4.32;;;;;;;;;;4988433;28;20401;-71
2021/03/16 01:58:29;;;;;;;35.90;5.30;;;;;;;;;;4987961;28;20113;-71
2021/03/16 02:00:55;;;;;;;37.35;5.75;;;;;;;;;;4988920;28;20031;-70
2021/03/16 02:03:22;;;;;;;25.58;4.05;;;;;;;;;;4991926;28;20018;-71
2021/03/16 02:05:48;;;;;;;33.38;5.57;;;;;;;;;;4991588;28;20023;-70
2021/03/16 02:08:35;;;;;;;37.38;4.53;;;;;;;;;;4983670;28;20081;-71
2021/03/16 02:11:07;;;;;;;35.03;6.43;;;;;;;;;;4986603;28;20022;-70
2021/03/16 02:13:33;;;;;;;;;;;;;;;;;;4978582;28;20042;-71
2021/03/16 02:16:01;;;;;;;31.48;4.82;;;;;;;;;;4986473;28;19933;-71
2021/03/16 02:18:29;;;;;;;34.88;5.70;;;;;;;;;;4988778;28;20105;-72
2021/03/16 02:21:33;;;;;;;31.85;4.63;;;;;;;;;;4986903;28;20023;-70
2021/03/16 02:24:05;;;;;;;35.33;4.28;;;;;;;;;;4941733;29;20040;-72
2021/03/16 02:26:43;;;;;;;23.17;3.88;;;;;;;;;;4937984;29;20228;-70
2021/03/16 02:29:16;;;;;;;24.67;4.55;;;;;;;;;;4963420;28;20045;-71
2021/03/16 02:31:44;;;;;;;29.42;4.32;;;;;;;;;;4980235;28;20037;-71
2021/03/16 02:34:12;;;;;;;31.75;4.65;;;;;;;;;;4975314;28;20107;-70
2021/03/16 02:36:38;;;;;;;26.17;3.78;;;;;;;;;;4984144;28;20026;-71
2021/03/16 02:39:06;;;;;;;25.70;3.65;;;;;;;;;;4985157;28;20043;-70
2021/03/16 02:41:32;;;;;;;26.10;5.85;;;;;;;;;;4988248;28;20562;-71
2021/03/16 02:43:59;;;;;;;25.25;3.58;;;;;;;;;;4992462;28;20057;-70
2021/03/16 02:46:25;;;;;;;27.55;3.88;;;;;;;;;;4983636;28;20022;-70
2021/03/16 02:48:52;;;;;;;27.73;4.07;;;;;;;;;;4985014;28;20495;-70
2021/03/16 02:51:18;;;;;;;26.83;4.35;;;;;;;;;;4986051;28;20141;-71
2021/03/16 02:53:44;;;;;;;27.48;3.50;;;;;;;;;;4986898;28;20084;-71
2021/03/16 02:56:11;;;;;;;30.05;5.10;;;;;;;;;;4989661;28;20087;-71
2021/03/16 02:58:37;;;;;;;30.90;3.95;;;;;;;;;;4987640;28;20085;-71
2021/03/16 03:01:04;;;;;;;33.38;3.90;;;;;;;;;;4988231;28;20030;-71
2021/03/16 03:03:30;;;;;;;34.78;4.40;;;;;;;;;;4980849;28;20029;-70
2021/03/16 03:05:57;;;;;;;26.50;3.67;;;;;;;;;;4987308;28;20037;-70
2021/03/16 03:08:24;;;;;;;30.60;4.63;;;;;;;;;;4984768;28;20042;-71
2021/03/16 03:10:50;;;;;;;40.13;5.18;;;;;;;;;;4988906;28;20037;-70
2021/03/16 03:13:16;;;;;;;18.13;3.67;;;;;;;;;;4985775;28;20018;-71
2021/03/16 03:15:42;;;;;;;22.10;4.20;;;;;;;;;;4984328;28;20038;-71
2021/03/16 03:18:08;;;;;;;25.38;3.75;;;;;;;;;;4984919;28;20042;-71
2021/03/16 03:20:35;;;;;;;30.27;5.25;;;;;;;;;;4987016;28;20046;-71
2021/03/16 03:23:15;;;;;;;26.83;3.60;;;;;;;;;;4986528;28;20043;-71
2021/03/16 03:25:44;;;;;;;30.30;3.80;;;;;;;;;;4988286;28;20031;-70
2021/03/16 03:28:15;;;;;;;31.73;4.07;;;;;;;;;;4984904;28;20580;-71
2021/03/16 03:30:43;;;;;;;35.83;3.95;;;;;;;;;;4984238;28;20018;-69
2021/03/16 03:33:11;;;;;;;20.75;3.40;;;;;;;;;;4978608;28;20034;-71
2021/03/16 03:35:38;;;;;;;25.80;3.65;;;;;;;;;;4984235;28;20034;-70
2021/03/16 03:38:04;;;;;;;24.80;3.55;;;;;;;;;;4986132;28;20035;-71
2021/03/16 03:40:31;;;;;;;28.65;4.38;;;;;;;;;;4984579;28;20038;-71
2021/03/16 03:42:58;;;;;;;26.25;3.83;;;;;;;;;;4985665;28;20110;-71
2021/03/16 03:45:28;;;;;;;29.52;3.13;;;;;;;;;;4986827;28;20073;-70
2021/03/16 03:47:56;;;;;;;34.88;4.35;;;;;;;;;;4985301;28;20080;-70
2021/03/16 03:50:22;;;;;;;28.15;3.80;;;;;;;;;;4985714;28;20500;-70
2021/03/16 03:52:49;;;;;;;26.75;3.72;;;;;;;;;;4984764;28;20034;-70
2021/03/16 03:55:16;;;;;;;26.90;3.92;;;;;;;;;;4977143;28;20022;-70
2021/03/16 03:57:42;;;;;;;27.92;4.00;;;;;;;;;;4978510;28;20026;-70
2021/03/16 04:00:15;;;;;;;27.65;3.30;;;;;;;;;;4987095;28;20029;-70
2021/03/16 04:02:42;;;;;;;26.45;4.32;;;;;;;;;;4981716;28;20062;-71
2021/03/16 04:05:15;;;;;;;30.67;5.05;;;;;;;;;;4987205;28;20034;-70
2021/03/16 04:07:41;;;;;;;28.50;3.42;;;;;;;;;;4987182;28;20018;-71
2021/03/16 04:10:09;;;;;;;21.73;3.80;;;;;;;;;;4979046;28;20027;-71
2021/03/16 04:12:39;;;;;;;28.20;4.95;;;;;;;;;;4987228;28;20049;-71
2021/03/16 04:15:09;;;;;;;22.45;4.05;;;;;;;;;;4990324;28;20026;-71
2021/03/16 04:17:35;;;;;;;31.25;5.90;;;;;;;;;;4979474;28;20034;-70
2021/03/16 04:20:03;;;;;;;26.55;4.55;;;;;;;;;;4989678;28;20097;-70
2021/03/16 04:22:29;;;;;;;23.77;3.65;;;;;;;;;;4987849;28;20050;-71
2021/03/16 04:24:56;;;;;;;29.30;4.13;;;;;;;;;;4989514;28;20034;-71
2021/03/16 04:27:23;;;;;;;23.25;4.18;;;;;;;;;;4982031;28;20018;-70
2021/03/16 04:29:49;;;;;;;18.45;2.88;;;;;;;;;;4986437;28;20034;-70
2021/03/16 04:32:15;;;;;;;29.33;4.03;;;;;;;;;;4981730;28;20062;-69
2021/03/16 04:34:41;;;;;;;23.33;3.47;;;;;;;;;;4989487;28;20027;-70
2021/03/16 04:37:07;;;;;;;21.02;3.45;;;;;;;;;;4982605;28;20030;-71
2021/03/16 04:39:33;;;;;;;28.50;3.95;;;;;;;;;;4982320;28;20041;-70
2021/03/16 04:41:59;;;;;;;22.40;3.83;;;;;;;;;;4981824;28;20023;-70
2021/03/16 04:44:25;;;;;;;24.85;4.28;;;;;;;;;;4989511;28;20030;-71
2021/03/16 04:46:51;;;;;;;18.77;3.65;;;;;;;;;;4987940;28;20026;-70
2021/03/16 04:49:17;;;;;;;20.67;3.80;;;;;;;;;;4983268;28;20027;-70
2021/03/16 04:51:43;;;;;;;26.08;3.47;;;;;;;;;;4985918;28;20101;-71
2021/03/16 04:54:09;;;;;;;25.80;4.53;;;;;;;;;;4988016;28;20045;-71
2021/03/16 04:56:35;;;;;;;23.20;3.15;;;;;;;;;;4989272;28;20086;-70
2021/03/16 04:59:01;;;;;;;35.80;4.60;;;;;;;;;;4986133;28;20027;-70
2021/03/16 05:01:27;;;;;;;21.10;3.08;;;;;;;;;;4988357;28;20049;-70
2021/03/16 05:03:54;;;;;;;23.30;5.50;;;;;;;;;;4990386;28;20392;-70
2021/03/16 05:06:20;;;;;;;23.90;3.45;;;;;;;;;;4986391;28;20022;-70
2021/03/16 05:08:46;;;;;;;21.80;4.40;;;;;;;;;;4987191;28;20468;-70
2021/03/16 05:11:12;;;;;;;23.50;3.33;;;;;;;;;;4983488;28;20034;-71
2021/03/16 05:13:38;;;;;;;26.73;3.60;;;;;;;;;;4978645;28;20026;-72
2021/03/16 05:16:04;;;;;;;20.95;3.13;;;;;;;;;;4987878;28;20369;-71
2021/03/16 05:18:30;;;;;;;22.88;3.95;;;;;;;;;;4976447;28;20038;-71
2021/03/16 05:20:57;;;;;;;19.00;4.03;;;;;;;;;;4982880;28;20034;-71
2021/03/16 05:23:23;;;;;;;26.98;4.78;;;;;;;;;;4980302;28;20118;-71
2021/03/16 05:25:49;;;;;;;20.48;3.28;;;;;;;;;;4983068;28;20034;-71
2021/03/16 05:28:15;;;;;;;23.00;3.90;;;;;;;;;;4989119;28;20034;-70
2021/03/16 05:30:41;;;;;;;21.80;3.28;;;;;;;;;;4988605;28;20026;-71
2021/03/16 05:33:07;;;;;;;28.80;4.47;;;;;;;;;;4988095;28;20074;-72
2021/03/16 05:35:33;;;;;;;29.45;3.67;;;;;;;;;;4987716;28;20499;-71
2021/03/16 05:37:59;;;;;;;29.92;4.07;;;;;;;;;;4977961;28;20029;-71
2021/03/16 05:40:27;;;;;;;24.23;3.13;;;;;;;;;;4984259;28;20120;-70
2021/03/16 05:42:53;;;;;;;20.20;3.45;;;;;;;;;;4975079;28;20670;-70
2021/03/16 05:45:19;;;;;;;19.92;3.90;;;;;;;;;;4985359;28;20622;-70
2021/03/16 05:47:47;;;;;;;22.63;3.85;;;;;;;;;;4981406;28;20025;-71
2021/03/16 05:50:14;;;;;;;22.15;3.05;;;;;;;;;;4975852;28;20034;-70
2021/03/16 05:52:40;;;;;;;26.40;4.65;;;;;;;;;;4985955;28;20062;-71
2021/03/16 05:55:07;;;;;;;21.65;3.17;;;;;;;;;;4987278;28;20030;-71
2021/03/16 05:57:33;;;;;;;20.08;2.83;;;;;;;;;;4978754;28;20034;-70
2021/03/16 06:00:00;;;;;;;24.80;3.15;;;;;;;;;;4984846;28;20042;-71
2021/03/16 06:02:26;;;;;;;21.27;3.30;;;;;;;;;;4986367;28;20030;-71
2021/03/16 06:04:52;;;;;;;19.95;3.38;;;;;;;;;;4986222;28;20030;-70
2021/03/16 06:07:18;;;;;;;21.60;2.70;;;;;;;;;;4984094;28;20028;-70
2021/03/16 06:09:45;;;;;;;17.77;2.95;;;;;;;;;;4991045;28;20499;-70
2021/03/16 06:12:11;;;;;;;25.40;5.20;;;;;;;;;;4988292;28;20037;-71
2021/03/16 06:14:38;;;;;;;21.80;3.97;;;;;;;;;;4988267;28;20030;-71
2021/03/16 06:17:05;;;;;;;15.63;3.58;;;;;;;;;;4987727;28;20126;-71
2021/03/16 06:19:32;;;;;;;18.85;3.42;;;;;;;;;;4987415;28;20022;-71
2021/03/16 06:21:59;;;;;;;26.13;3.40;;;;;;;;;;4990159;28;20022;-70
2021/03/16 06:24:25;;;;;;;20.15;3.47;;;;;;;;;;4979113;28;20173;-71
2021/03/16 06:26:51;;;;;;;17.77;3.15;;;;;;;;;;4985667;28;20026;-71
2021/03/16 06:29:17;;;;;;;25.73;3.17;;;;;;;;;;4991879;28;20014;-71
2021/03/16 06:31:44;;;;;;;23.23;2.47;;;;;;;;;;4983848;28;20034;-71
2021/03/16 06:34:23;;;;;;;20.35;3.22;;;;;;;;;;4994861;28;20100;-72
2021/03/16 06:36:57;;;;;;;31.08;3.83;;;;;;;;;;4986448;28;20030;-72
2021/03/16 06:39:24;;;;;;;17.58;2.90;;;;;;;;;;4976666;28;20385;-73
2021/03/16 06:41:50;;;;;;;18.80;3.28;;;;;;;;;;4987676;28;20076;-73
2021/03/16 06:44:17;;;;;;;23.80;4.20;;;;;;;;;;4984858;28;20038;-73
2021/03/16 06:46:43;;;;;;;19.33;4.03;;;;;;;;;;4988609;28;20030;-74
2021/03/16 06:49:17;;;;;;;18.85;3.17;;;;;;;;;;4987377;28;20031;-75
2021/03/16 06:51:43;;;;;;;13.77;2.80;;;;;;;;;;4984147;28;20049;-75
2021/03/16 06:54:36;;;;;;;14.43;2.25;;;;;;;;;;4984981;28;20052;-75
2021/03/16 06:57:02;;;;;;;13.07;2.75;;;;;;;;;;4986883;28;20507;-75
2021/03/16 06:59:32;;;;;;;13.95;2.33;;;;;;;;;;4987256;28;20034;-75
2021/03/16 07:01:58;;;;;;;21.27;2.47;;;;;;;;;;4987583;28;20030;-76
2021/03/16 07:04:26;;;;;;;21.45;2.97;;;;;;;;;;4986527;28;20109;-76
2021/03/16 07:06:52;;;;;;;21.27;4.65;;;;;;;;;;4986088;28;20038;-77
2021/03/16 07:09:19;;;;;;;14.95;2.25;;;;;;;;;;4985256;28;20492;-77
2021/03/16 07:11:51;;;;;;;12.43;1.73;;;;;;;;;;4985208;28;20026;-77
2021/03/16 07:14:18;;;;;;;10.20;1.98;;;;;;;;;;4990725;28;20559;-78
2021/03/16 07:16:45;;;;;;;11.65;1.95;;;;;;;;;;4987351;28;20042;-78
2021/03/16 07:19:11;;;;;;;9.68;2.35;;;;;;;;;;4976309;28;20053;-78
2021/03/16 07:21:38;;;;;;;20.55;2.42;;;;;;;;;;4976167;28;20030;-79
2021/03/16 07:24:09;;;;;;;10.90;2.22;;;;;;;;;;4981776;28;20057;-79
2021/03/16 07:26:35;;;;;;;8.13;1.92;;;;;;;;;;4985677;28;20026;-78
2021/03/16 07:29:04;;;;;;;16.00;2.10;;;;;;;;;;4980505;28;20567;-78
2021/03/16 07:31:32;;;;;;;6.78;1.55;;;;;;;;;;4982020;28;20030;-77
2021/03/16 07:34:00;;;;;;;6.55;2.03;;;;;;;;;;4990397;28;20030;-77
2021/03/16 07:36:26;;;;;;;7.25;1.30;;;;;;;;;;4975622;28;20062;-76
2021/03/16 07:38:52;;;;;;;11.95;1.75;;;;;;;;;;4971964;28;20031;-76
2021/03/16 07:41:19;;;;;;;7.13;1.30;;;;;;;;;;4978192;28;20031;-76
2021/03/16 07:43:45;;;;;;;10.20;1.38;;;;;;;;;;4992451;28;20042;-76
2021/03/16 07:46:15;;;;;;;10.82;1.50;;;;;;;;;;4982256;28;20023;-75
2021/03/16 07:48:42;;;;;;;8.18;1.45;;;;;;;;;;4981324;28;20648;-75
2021/03/16 07:51:12;;;;;;;8.57;1.30;;;;;;;;;;4981225;28;20051;-75
2021/03/16 07:53:40;;;;;;;6.18;1.30;;;;;;;;;;4991493;28;20304;-75
2021/03/16 07:56:08;;;;;;;7.40;1.63;;;;;;;;;;4988273;28;20050;-75
2021/03/16 07:58:42;;;;;;;8.32;1.95;;;;;;;;;;4981364;28;20189;-74
2021/03/16 08:01:08;;;;;;;6.75;1.30;;;;;;;;;;4986226;28;20105;-74
2021/03/16 08:03:34;;;;;;;9.45;2.17;;;;;;;;;;4980458;28;20026;-74
2021/03/16 08:06:00;;;;;;;14.05;1.90;;;;;;;;;;4979714;28;20040;-75
2021/03/16 08:08:26;;;;;;;7.15;1.40;;;;;;;;;;4976158;28;20030;-75
2021/03/16 08:10:52;;;;;;;6.65;1.30;;;;;;;;;;4990246;28;20049;-75
2021/03/16 08:13:21;;;;;;;6.10;1.05;;;;;;;;;;4983367;28;20485;-75
2021/03/16 08:15:48;;;;;;;5.53;1.40;;;;;;;;;;4981468;28;20029;-75
2021/03/16 08:18:26;;;;;;;6.93;1.25;;;;;;;;;;4981021;28;20042;-75
2021/03/16 08:20:52;;;;;;;6.40;1.45;;;;;;;;;;4991005;28;20022;-75
2021/03/16 08:23:18;;;;;;;4.75;1.30;;;;;;;;;;4981050;28;20049;-75
2021/03/16 08:25:44;;;;;;;3.53;1.25;;;;;;;;;;4980011;28;20516;-75
2021/03/16 08:28:16;;;;;;;3.30;1.35;;;;;;;;;;4984673;28;20026;-75
2021/03/16 08:30:43;;;;;;;9.00;1.50;;;;;;;;;;4978882;28;20037;-76
2021/03/16 08:33:15;;;;;;;5.65;0.98;;;;;;;;;;4980162;28;20489;-75
2021/03/16 08:35:54;;;;;;;7.60;1.42;;;;;;;;;;4985970;28;20022;-75
2021/03/16 08:38:29;;;;;;;5.20;0.85;;;;;;;;;;4983457;28;20519;-74
2021/03/16 08:41:22;;;;;;;10.50;1.42;;;;;;;;;;4979338;28;20097;-74
2021/03/16 08:43:49;;;;;;;5.70;1.23;;;;;;;;;;4976976;28;20062;-74
2021/03/16 08:46:15;;;;;;;6.18;1.17;;;;;;;;;;4985255;28;20161;-75
2021/03/16 08:48:43;;;;;;;6.47;1.27;;;;;;;;;;4977300;28;20030;-75
2021/03/16 08:51:11;;;;;;;9.32;1.08;;;;;;;;;;4979075;28;20051;-75
2021/03/16 08:53:37;;;;;;;4.85;1.15;;;;;;;;;;4974417;28;20036;-75
2021/03/16 08:56:03;;;;;;;4.13;0.75;;;;;;;;;;4974437;28;20034;-75
2021/03/16 08:58:29;;;;;;;4.90;1.10;;;;;;;;;;4970547;28;20416;-74
2021/03/16 09:00:55;;;;;;;4.75;0.93;;;;;;;;;;4976671;28;20122;-74
2021/03/16 09:03:28;;;;;;;5.78;0.90;;;;;;;;;;4976937;28;20121;-74
2021/03/16 09:05:55;;;;;;;5.55;1.17;;;;;;;;;;4976839;28;20037;-74
2021/03/16 09:08:23;;;;;;;6.20;0.90;;;;;;;;;;4975760;28;20086;-74
2021/03/16 09:10:49;;;;;;;11.07;1.20;;;;;;;;;;4975648;28;20030;-73
2021/03/16 09:13:26;;;;;;;6.22;0.90;;;;;;;;;;4977378;28;20113;-73
2021/03/16 09:15:52;;;;;;;7.93;1.40;;;;;;;;;;4977738;28;20030;-74
2021/03/16 09:18:18;;;;;;;2.20;0.70;;;;;;;;;;4971113;28;20502;-74
2021/03/16 09:20:44;;;;;;;6.40;1.00;;;;;;;;;;4975635;28;20689;-73
2021/03/16 09:23:11;;;;;;;6.45;1.00;;;;;;;;;;4972925;28;20031;-73
2021/03/16 09:25:38;;;;;;;8.70;1.75;;;;;;;;;;4975389;28;20026;-73
2021/03/16 09:28:06;;;;;;;4.10;1.10;;;;;;;;;;4975030;28;20034;-73
2021/03/16 09:30:34;;;;;;;4.00;0.77;;;;;;;;;;4972974;28;20585;-73
2021/03/16 09:33:00;;;;;;;2.88;0.93;;;;;;;;;;4977230;28;20064;-73
2021/03/16 09:35:26;;;;;;;5.97;1.20;;;;;;;;;;4990531;28;20054;-74
2021/03/16 09:37:53;;;;;;;2.83;0.70;;;;;;;;;;4978009;28;20031;-74
2021/03/16 09:40:31;;;;;;;5.15;1.02;;;;;;;;;;4972301;28;20396;-74
2021/03/16 09:42:58;;;;;;;3.80;1.08;;;;;;;;;;4978557;28;20546;-74
2021/03/16 09:45:26;;;;;;;3.97;1.17;;;;;;;;;;4979028;28;20023;-72
2021/03/16 09:47:52;;;;;;;7.50;1.13;;;;;;;;;;4979641;28;20022;-73
2021/03/16 09:50:20;;;;;;;7.40;1.15;;;;;;;;;;4976521;28;20121;-73
2021/03/16 09:52:57;;;;;;;4.47;1.20;;;;;;;;;;4979376;28;20031;-73
2021/03/16 09:55:23;;;;;;;6.13;0.73;;;;;;;;;;4978193;28;20267;-73
2021/03/16 09:57:49;;;;;;;5.45;0.80;;;;;;;;;;4979812;28;20041;-73
2021/03/16 10:00:16;;;;;;;5.03;0.80;;;;;;;;;;4973410;28;20062;-73
2021/03/16 10:02:43;;;;;;;8.30;1.00;;;;;;;;;;4978298;28;20492;-73
2021/03/16 10:05:18;;;;;;;3.75;0.85;;;;;;;;;;4983032;28;20029;-75
2021/03/16 10:07:50;;;;;;;6.82;0.80;;;;;;;;;;4981611;28;20049;-72
2021/03/16 10:10:17;;;;;;;5.10;0.85;;;;;;;;;;4978980;28;20602;-72
2021/03/16 10:12:59;;;;;;;5.45;0.60;;;;;;;;;;4978085;28;20453;-73
2021/03/16 10:15:30;;;;;;;6.05;1.20;;;;;;;;;;4978047;28;20105;-72
2021/03/16 10:17:57;;;;;;;2.20;0.80;;;;;;;;;;4984271;28;20101;-73
2021/03/16 10:20:35;;;;;;;2.45;0.73;;;;;;;;;;4976668;28;20022;-73
2021/03/16 10:23:02;;;;;;;5.40;1.10;;;;;;;;;;4979845;28;20480;-73
2021/03/16 10:25:29;;;;;;;8.52;1.60;;;;;;;;;;4979766;28;20127;-73
2021/03/16 10:27:59;;;;;;;5.55;1.08;;;;;;;;;;4977933;28;20460;-73
2021/03/16 10:30:32;;;;;;;5.47;1.35;;;;;;;;;;4974339;28;20038;-73
2021/03/16 10:32:58;;;;;;;5.55;1.35;;;;;;;;;;4976438;28;20123;-72
2021/03/16 10:35:24;;;;;;;4.00;1.00;;;;;;;;;;4979935;28;20587;-72
2021/03/16 10:37:50;;;;;;;5.55;0.82;;;;;;;;;;4977872;28;21694;-73
2021/03/16 10:40:17;;;;;;;7.50;1.75;;;;;;;;;;4982929;28;20030;-73
2021/03/16 10:42:43;;;;;;;4.38;1.17;;;;;;;;;;4988386;28;20035;-73
2021/03/16 10:45:09;;;;;;;7.05;1.85;;;;;;;;;;4986934;28;20117;-73
2021/03/16 10:47:35;;;;;;;5.55;1.50;;;;;;;;;;4981283;28;20027;-73
2021/03/16 10:50:01;;;;;;;5.05;1.58;;;;;;;;;;4975457;28;20049;-74
2021/03/16 10:52:27;;;;;;;6.57;1.02;;;;;;;;;;4973948;28;20031;-73
2021/03/16 10:54:53;;;;;;;4.57;1.17;;;;;;;;;;4977956;28;20042;-74
2021/03/16 10:57:19;;;;;;;4.40;1.20;;;;;;;;;;4979225;28;20034;-74
2021/03/16 10:59:45;;;;;;;2.65;1.10;;;;;;;;;;4975602;28;20027;-74
2021/03/16 11:02:11;;;;;;;8.48;1.73;;;;;;;;;;4974333;28;20030;-74
2021/03/16 11:04:38;;;;;;;5.20;1.10;;;;;;;;;;4977959;28;20026;-74
2021/03/16 11:07:04;;;;;;;4.43;1.17;;;;;;;;;;4984868;28;20132;-74
2021/03/16 11:09:30;;;;;;;4.10;1.20;;;;;;;;;;4980561;28;20113;-74
2021/03/16 11:11:56;;;;;;;3.75;1.25;;;;;;;;;;4985583;28;20034;-74
2021/03/16 11:14:22;;;;;;;3.80;1.00;;;;;;;;;;4984132;28;20041;-74
2021/03/16 11:16:48;;;;;;;3.15;1.02;;;;;;;;;;4988576;28;20046;-74
2021/03/16 11:19:14;;;;;;;5.38;1.45;;;;;;;;;;4987018;28;20023;-74
2021/03/16 11:21:42;;;;;;;2.85;1.30;;;;;;;;;;4988115;28;20018;-73
2021/03/16 11:24:08;;;;;;;5.95;1.33;;;;;;;;;;4986818;28;20066;-74
2021/03/16 11:26:34;;;;;;;5.30;1.35;;;;;;;;;;4989257;28;20022;-74
2021/03/16 11:29:01;;;;;;;4.10;1.50;;;;;;;;;;4987164;28;20038;-74
2021/03/16 11:31:27;;;;;;;5.13;1.30;;;;;;;;;;4990410;28;20037;-74
2021/03/16 11:33:54;;;;;;;6.43;1.65;;;;;;;;;;4982625;28;20065;-74
2021/03/16 11:36:20;;;;;;;5.05;1.30;;;;;;;;;;4989005;28;20034;-74
2021/03/16 11:38:46;;;;;;;3.95;1.40;;;;;;;;;;4980584;28;20586;-74
2021/03/16 11:41:12;;;;;;;2.50;1.23;;;;;;;;;;4987614;28;20018;-73
2021/03/16 11:43:38;;;;;;;4.40;1.33;;;;;;;;;;4990449;28;20097;-73
2021/03/16 11:46:04;;;;;;;4.00;1.20;;;;;;;;;;4984760;28;20077;-72
2021/03/16 11:48:30;;;;;;;2.63;1.25;;;;;;;;;;4976508;28;20524;-73
2021/03/16 11:50:56;;;;;;;5.43;1.48;;;;;;;;;;4976760;28;20058;-72
2021/03/16 11:53:23;;;;;;;4.90;1.20;;;;;;;;;;4977716;28;20053;-73
2021/03/16 11:55:49;;;;;;;4.00;1.42;;;;;;;;;;4979465;28;20026;-72
2021/03/16 11:58:15;;;;;;;2.63;1.15;;;;;;;;;;4979365;28;20482;-72
2021/03/16 12:00:41;;;;;;;4.25;1.35;;;;;;;;;;4974205;28;20567;-72
2021/03/16 12:03:07;;;;;;;4.22;1.35;;;;;;;;;;4978940;28;20035;-72
2021/03/16 12:05:33;;;;;;;6.88;1.60;;;;;;;;;;4974858;28;20026;-72
2021/03/16 12:08:00;;;;;;;4.75;1.38;;;;;;;;;;4977906;28;20031;-72
2021/03/16 12:10:27;;;;;;;3.47;0.93;;;;;;;;;;4970471;28;20157;-73
2021/03/16 12:12:53;;;;;;;2.70;1.23;;;;;;;;;;4975882;28;20116;-72
2021/03/16 12:15:22;;;;;;;4.40;1.25;;;;;;;;;;4976199;28;20038;-73
2021/03/16 12:17:48;;;;;;;4.32;1.60;;;;;;;;;;4978697;28;20038;-72
2021/03/16 12:20:14;;;;;;;3.90;1.25;;;;;;;;;;4972491;28;20026;-72
2021/03/16 12:22:41;;;;;;;4.07;1.23;;;;;;;;;;4973600;28;20057;-72
2021/03/16 12:25:07;;;;;;;3.00;1.40;;;;;;;;;;4977136;28;20041;-72
2021/03/16 12:27:34;;;;;;;3.95;1.90;;;;;;;;;;4976672;28;20121;-72
2021/03/16 12:30:00;;;;;;;4.55;1.65;;;;;;;;;;4977306;28;20097;-72
2021/03/16 12:32:26;;;;;;;7.65;1.50;;;;;;;;;;4978922;28;20027;-72
2021/03/16 12:34:52;;;;;;;9.13;1.60;;;;;;;;;;4976385;28;20026;-72
2021/03/16 12:37:19;;;;;;;5.28;1.42;;;;;;;;;;4974454;28;20053;-72
2021/03/16 12:39:45;;;;;;;3.00;1.40;;;;;;;;;;4977117;28;20030;-71
2021/03/16 12:42:11;;;;;;;4.72;1.42;;;;;;;;;;4974676;28;20251;-72
2021/03/16 12:44:38;;;;;;;4.30;1.77;;;;;;;;;;4978383;28;20497;-73
2021/03/16 12:47:04;;;;;;;4.95;1.50;;;;;;;;;;4977333;28;20080;-72
2021/03/16 12:49:33;;;;;;;4.55;1.80;;;;;;;;;;4973892;28;20041;-72
2021/03/16 12:52:00;;;;;;;3.38;1.45;;;;;;;;;;4992517;28;20275;-72
2021/03/16 12:54:26;;;;;;;3.05;1.50;;;;;;;;;;4977586;28;20108;-72
2021/03/16 12:56:53;;;;;;;4.05;1.60;;;;;;;;;;4979914;28;20029;-72
2021/03/16 12:59:19;;;;;;;5.63;1.83;;;;;;;;;;4981277;28;20030;-71
2021/03/16 13:01:45;;;;;;;4.45;2.28;;;;;;;;;;4978657;28;20031;-72
2021/03/16 13:04:11;;;;;;;3.63;1.67;;;;;;;;;;4978207;28;20120;-71
2021/03/16 13:06:37;;;;;;;3.95;1.98;;;;;;;;;;4974266;28;20031;-71
2021/03/16 13:09:04;;;;;;;3.72;1.65;;;;;;;;;;4971009;28;20034;-72
2021/03/16 13:11:30;;;;;;;4.60;2.25;;;;;;;;;;4977010;28;20269;-71
2021/03/16 13:13:56;;;;;;;5.38;2.13;;;;;;;;;;4978093;28;20030;-72
2021/03/16 13:16:22;;;;;;;6.22;3.03;;;;;;;;;;4976767;28;20038;-72
2021/03/16 13:18:48;;;;;;;5.82;2.75;;;;;;;;;;4979066;28;20030;-72
2021/03/16 13:21:14;;;;;;;5.93;2.38;;;;;;;;;;4977824;28;20026;-72
2021/03/16 13:23:40;;;;;;;5.10;2.72;;;;;;;;;;4978840;28;20590;-71
2021/03/16 13:26:06;;;;;;;8.10;2.88;;;;;;;;;;4979581;28;20019;-72
2021/03/16 13:28:32;;;;;;;7.18;3.00;;;;;;;;;;4978538;28;20381;-72
2021/03/16 13:31:01;;;;;;;5.65;2.97;;;;;;;;;;4976581;28;20023;-72
2021/03/16 13:33:28;;;;;;;7.43;3.80;;;;;;;;;;4981052;28;20038;-72
2021/03/16 13:35:54;;;;;;;7.90;3.50;;;;;;;;;;4980266;28;20117;-72
2021/03/16 13:38:21;;;;;;;7.10;3.50;;;;;;;;;;4978459;28;20129;-72
2021/03/16 13:40:47;;;;;;;6.45;3.45;;;;;;;;;;4980920;28;20121;-72
2021/03/16 13:43:13;;;;;;;8.27;3.63;;;;;;;;;;4975648;28;20034;-72
2021/03/16 13:45:39;;;;;;;6.32;3.60;;;;;;;;;;4978167;28;20045;-72
2021/03/16 13:48:06;;;;;;;8.43;4.43;;;;;;;;;;4977118;28;20041;-72
2021/03/16 13:50:32;;;;;;;6.97;3.90;;;;;;;;;;4980183;28;20130;-72
2021/03/16 13:52:58;;;;;;;9.50;4.40;;;;;;;;;;4978610;28;20038;-72
2021/03/16 13:55:24;;;;;;;6.82;4.15;;;;;;;;;;4975692;28;20035;-72
2021/03/16 13:57:51;;;;;;;8.05;3.75;;;;;;;;;;4979353;28;20129;-71
2021/03/16 14:00:17;;;;;;;8.30;3.80;;;;;;;;;;4977395;28;20288;-71
2021/03/16 14:02:43;;;;;;;8.82;3.95;;;;;;;;;;4979624;28;20054;-72
2021/03/16 14:05:10;;;;;;;7.40;3.45;;;;;;;;;;4981010;28;20023;-72
2021/03/16 14:07:36;;;;;;;7.90;3.33;;;;;;;;;;4980932;28;20073;-71
2021/03/16 14:10:04;;;;;;;8.95;3.72;;;;;;;;;;4974668;28;20026;-71
2021/03/16 14:12:30;;;;;;;9.07;4.00;;;;;;;;;;4977266;28;20416;-73
2021/03/16 14:14:56;;;;;;;8.55;3.97;;;;;;;;;;4978812;28;20038;-71
2021/03/16 14:17:22;;;;;;;9.43;4.85;;;;;;;;;;4975634;28;20026;-71
2021/03/16 14:19:48;;;;;;;10.32;4.80;;;;;;;;;;4975483;28;20112;-72
2021/03/16 14:22:14;;;;;;;11.00;5.60;;;;;;;;;;4981603;28;20129;-72
2021/03/16 14:24:40;;;;;;;13.45;5.93;;;;;;;;;;4978929;28;20034;-71
2021/03/16 14:27:06;;;;;;;12.85;6.57;;;;;;;;;;4980773;28;20018;-71
2021/03/16 14:29:32;;;;;;;11.90;6.32;;;;;;;;;;4981714;28;20385;-72
2021/03/16 14:31:58;;;;;;;13.70;6.63;;;;;;;;;;4979604;28;20459;-72
2021/03/16 14:34:24;;;;;;;14.73;6.68;;;;;;;;;;4982579;28;20038;-73
2021/03/16 14:36:50;;;;;;;13.32;7.70;;;;;;;;;;4979548;28;20117;-72